Time;durP1;ratioP1;P1;durP2;ratioP2;P2;SDS_P1;SDS_P2;PMS_P1;PMS_P2;Temp;Humidity;BMP_temperature;BMP_pressure;BME280_temperature;BME280_humidity;BME280_pressure;Samples;Min_cycle;Max_cycle;Signal;HPM_P1;HPM_P2
2022/06/15 00:00:31;;;;;;;9.70;6.20;;;12.80;99.90;;;;;;4987725;28;20041;-87
2022/06/15 00:02:57;;;;;;;12.40;6.78;;;12.80;99.90;;;;;;4971784;28;20042;-88
2022/06/15 00:05:23;;;;;;;11.68;6.78;;;12.70;99.90;;;;;;4987113;28;20038;-87
2022/06/15 00:07:49;;;;;;;10.57;6.13;;;12.80;99.90;;;;;;4987762;28;20042;-86
2022/06/15 00:10:14;;;;;;;11.05;6.40;;;12.70;99.90;;;;;;4987711;28;20108;-88
2022/06/15 00:12:40;;;;;;;10.93;6.05;;;12.60;99.90;;;;;;4988567;28;20053;-87
2022/06/15 00:15:07;;;;;;;10.02;6.20;;;12.60;99.90;;;;;;4971066;28;20031;-88
2022/06/15 00:17:33;;;;;;;9.90;6.68;;;12.60;99.90;;;;;;4971226;28;20038;-87
2022/06/15 00:19:58;;;;;;;10.57;6.85;;;12.50;99.90;;;;;;4975070;28;20487;-86
2022/06/15 00:22:24;;;;;;;11.25;6.43;;;12.50;99.90;;;;;;4974238;28;20042;-86
2022/06/15 00:24:49;;;;;;;10.75;6.75;;;12.40;99.90;;;;;;4990579;28;20039;-87
2022/06/15 00:27:15;;;;;;;10.63;6.80;;;12.30;99.90;;;;;;4990531;28;20042;-86
2022/06/15 00:29:40;;;;;;;10.02;6.53;;;12.30;99.90;;;;;;4973361;28;20353;-86
2022/06/15 00:32:07;;;;;;;10.73;6.65;;;12.20;99.90;;;;;;4991418;28;20049;-87
2022/06/15 00:34:32;;;;;;;10.45;6.75;;;12.20;99.90;;;;;;4990842;28;20556;-87
2022/06/15 00:36:58;;;;;;;10.88;7.28;;;12.20;99.90;;;;;;4990713;28;20046;-87
2022/06/15 00:39:24;;;;;;;11.30;7.07;;;12.10;99.90;;;;;;4974378;28;20415;-87
2022/06/15 00:41:49;;;;;;;11.57;7.40;;;12.10;99.90;;;;;;4990676;28;20039;-86
2022/06/15 00:44:21;;;;;;;10.27;7.22;;;12.10;99.90;;;;;;4989844;28;20041;-87
2022/06/15 00:46:50;;;;;;;11.25;7.22;;;12.10;99.90;;;;;;4990090;28;20042;-86
2022/06/15 00:49:30;;;;;;;10.75;6.78;;;12.10;99.90;;;;;;4990538;28;20049;-86
2022/06/15 00:52:00;;;;;;;10.48;6.85;;;12.00;99.90;;;;;;4991878;28;20042;-87
2022/06/15 00:54:26;;;;;;;10.75;7.43;;;12.00;99.90;;;;;;4990305;28;20137;-87
2022/06/15 00:56:53;;;;;;;10.68;7.70;;;12.10;99.90;;;;;;4974280;28;20173;-87
2022/06/15 00:59:32;;;;;;;10.35;7.50;;;12.00;99.90;;;;;;4974415;28;20053;-86
2022/06/15 01:01:58;;;;;;;12.48;7.70;;;12.00;99.90;;;;;;4991031;28;20407;-86
2022/06/15 01:04:25;;;;;;;11.55;7.85;;;12.00;99.90;;;;;;4989987;28;20053;-88
2022/06/15 01:07:25;;;;;;;10.50;7.63;;;12.00;99.90;;;;;;4990639;28;20078;-86
2022/06/15 01:10:19;;;;;;;11.25;7.30;;;11.90;99.90;;;;;;4982048;28;20054;-86
2022/06/15 01:13:02;;;;;;;12.05;7.78;;;11.90;99.90;;;;;;4990142;28;20491;-87
2022/06/15 01:15:38;;;;;;;11.02;7.15;;;11.90;99.90;;;;;;4990000;28;20319;-86
2022/06/15 01:18:35;;;;;;;11.57;7.53;;;11.90;99.90;;;;;;4973354;28;20824;-87
2022/06/15 01:21:41;;;;;;;10.63;7.65;;;11.90;99.90;;;;;;4974870;28;20078;-87
2022/06/15 01:24:26;;;;;;;12.13;7.38;;;11.90;99.90;;;;;;4989688;28;20507;-87
2022/06/15 01:27:21;;;;;;;10.60;7.35;;;11.90;99.90;;;;;;4990828;28;20042;-86
2022/06/15 01:30:14;;;;;;;12.50;7.60;;;11.90;99.90;;;;;;4972808;28;20086;-86
2022/06/15 01:32:52;;;;;;;11.18;6.78;;;11.90;99.90;;;;;;4973459;28;20126;-86
2022/06/15 01:35:40;;;;;;;11.35;7.93;;;11.90;99.90;;;;;;4973496;28;20054;-86
2022/06/15 01:38:28;;;;;;;10.70;7.40;;;11.80;99.90;;;;;;4949949;28;20050;-87
2022/06/15 01:41:15;;;;;;;11.52;7.47;;;11.80;99.90;;;;;;4990240;28;20046;-86
2022/06/15 01:44:09;;;;;;;12.20;7.63;;;11.70;99.90;;;;;;4972002;28;20125;-87
2022/06/15 01:46:39;;;;;;;10.30;6.97;;;11.70;99.90;;;;;;4973603;28;20108;-86
2022/06/15 01:49:06;;;;;;;10.40;7.20;;;11.60;99.90;;;;;;4972324;28;20125;-87
2022/06/15 01:51:38;;;;;;;12.43;7.05;;;11.60;99.90;;;;;;4972370;28;20042;-88
2022/06/15 01:54:42;;;;;;;11.85;7.20;;;11.60;99.90;;;;;;4972706;28;20054;-87
2022/06/15 01:57:09;;;;;;;9.93;7.65;;;11.60;99.90;;;;;;4968995;28;20121;-86
2022/06/15 01:59:54;;;;;;;10.02;7.15;;;11.50;99.90;;;;;;4973089;28;20134;-88
2022/06/15 02:02:33;;;;;;;10.68;8.10;;;11.50;99.90;;;;;;4973061;28;20428;-88
2022/06/15 02:05:18;;;;;;;11.60;7.22;;;11.50;99.90;;;;;;4987578;28;20137;-88
2022/06/15 02:08:03;;;;;;;10.65;8.13;;;11.50;99.90;;;;;;4988585;28;20046;-87
2022/06/15 02:10:38;;;;;;;10.23;7.05;;;11.50;99.90;;;;;;4972942;28;20073;-88
2022/06/15 02:13:18;;;;;;;10.68;7.32;;;11.40;99.90;;;;;;4989321;28;20050;-88
2022/06/15 02:15:48;;;;;;;11.33;7.07;;;11.40;99.90;;;;;;4969820;28;20042;-87
2022/06/15 02:18:18;;;;;;;9.98;7.25;;;11.40;99.90;;;;;;4981301;28;20112;-87
2022/06/15 02:20:48;;;;;;;10.55;6.38;;;11.30;99.90;;;;;;4987531;28;20042;-88
2022/06/15 02:23:16;;;;;;;10.60;6.23;;;11.20;99.90;;;;;;4988908;28;20153;-88
2022/06/15 02:25:46;;;;;;;10.20;7.18;;;11.20;99.90;;;;;;4989222;28;20046;-87
2022/06/15 02:28:12;;;;;;;11.75;7.72;;;11.10;99.90;;;;;;4990126;28;20050;-88
2022/06/15 02:30:39;;;;;;;13.05;8.73;;;11.10;99.90;;;;;;4989022;28;20555;-88
2022/06/15 02:33:31;;;;;;;12.30;7.57;;;11.10;99.90;;;;;;4971762;28;20042;-87
2022/06/15 02:35:58;;;;;;;11.88;7.90;;;11.10;99.90;;;;;;4969747;28;20086;-87
2022/06/15 02:38:26;;;;;;;11.82;8.20;;;11.10;99.90;;;;;;4983841;28;20047;-88
2022/06/15 02:40:51;;;;;;;11.30;7.93;;;11.00;99.90;;;;;;4988926;28;20121;-88
2022/06/15 02:43:22;;;;;;;9.98;7.13;;;11.00;99.90;;;;;;4987327;28;20125;-87
2022/06/15 02:45:49;;;;;;;9.90;6.72;;;11.00;99.90;;;;;;4989722;28;20069;-87
2022/06/15 02:48:16;;;;;;;10.70;7.18;;;10.90;99.90;;;;;;4988083;28;20744;-87
2022/06/15 02:51:00;;;;;;;11.05;6.38;;;10.90;99.90;;;;;;4988842;28;20050;-87
2022/06/15 02:53:29;;;;;;;11.02;7.97;;;10.80;99.90;;;;;;4989285;28;20086;-87
2022/06/15 02:55:58;;;;;;;9.32;7.18;;;10.80;99.90;;;;;;4988042;28;20042;-87
2022/06/15 02:58:29;;;;;;;10.00;6.80;;;10.80;99.90;;;;;;4989192;28;20085;-87
2022/06/15 03:00:56;;;;;;;11.48;7.43;;;10.80;99.90;;;;;;4972371;28;20046;-87
2022/06/15 03:03:24;;;;;;;10.13;6.80;;;10.80;99.90;;;;;;4987875;28;20046;-86
2022/06/15 03:05:50;;;;;;;9.63;6.43;;;10.80;99.90;;;;;;4989117;28;20038;-87
2022/06/15 03:08:18;;;;;;;8.75;6.50;;;10.70;99.90;;;;;;4971974;28;20390;-86
2022/06/15 03:10:43;;;;;;;10.60;7.40;;;10.70;99.90;;;;;;4988993;28;20054;-88
2022/06/15 03:13:09;;;;;;;10.00;7.10;;;10.70;99.90;;;;;;4988637;28;20372;-86
2022/06/15 03:15:35;;;;;;;11.07;7.13;;;10.70;99.90;;;;;;4987865;28;20042;-87
2022/06/15 03:18:01;;;;;;;9.80;7.35;;;10.70;99.90;;;;;;4988972;28;20472;-86
2022/06/15 03:20:26;;;;;;;10.45;7.80;;;10.70;99.90;;;;;;4972341;28;20061;-86
2022/06/15 03:22:52;;;;;;;12.50;7.90;;;10.70;99.90;;;;;;4972021;28;20050;-87
2022/06/15 03:25:18;;;;;;;10.95;7.03;;;10.70;99.90;;;;;;4988753;28;20034;-86
2022/06/15 03:27:44;;;;;;;11.85;8.00;;;10.70;99.90;;;;;;4986807;28;20431;-87
2022/06/15 03:30:12;;;;;;;9.90;6.95;;;10.70;99.90;;;;;;4989106;28;20113;-87
2022/06/15 03:32:38;;;;;;;11.98;8.38;;;10.70;99.90;;;;;;4989102;28;20042;-87
2022/06/15 03:35:04;;;;;;;10.20;7.45;;;10.80;99.90;;;;;;4989340;28;20122;-87
2022/06/15 03:37:30;;;;;;;10.32;6.95;;;10.70;99.90;;;;;;4971966;28;20038;-87
2022/06/15 03:39:56;;;;;;;10.40;7.40;;;10.70;99.90;;;;;;4971851;28;20057;-88
2022/06/15 03:42:24;;;;;;;10.57;7.30;;;10.70;99.90;;;;;;4986984;28;20050;-87
2022/06/15 03:44:53;;;;;;;11.02;7.10;;;10.80;99.90;;;;;;4972163;28;20137;-88
2022/06/15 03:47:19;;;;;;;11.15;6.85;;;10.70;99.90;;;;;;4987934;28;20044;-87
2022/06/15 03:49:48;;;;;;;10.50;7.10;;;10.80;99.90;;;;;;4985677;28;20065;-89
2022/06/15 03:52:18;;;;;;;11.43;7.47;;;10.80;99.90;;;;;;4987902;28;20077;-89
2022/06/15 03:54:44;;;;;;;11.45;7.93;;;10.80;99.90;;;;;;4988012;28;20976;-90
2022/06/15 03:57:12;;;;;;;11.50;8.77;;;10.90;99.90;;;;;;4970950;28;20097;-86
2022/06/15 03:59:38;;;;;;;13.40;9.43;;;10.90;99.90;;;;;;4972176;28;20101;-87
2022/06/15 04:02:04;;;;;;;13.52;8.77;;;11.00;99.90;;;;;;4991861;28;20078;-88
2022/06/15 04:04:29;;;;;;;13.57;9.32;;;11.10;99.90;;;;;;4989813;28;20372;-88
2022/06/15 04:06:55;;;;;;;14.18;9.15;;;11.20;99.90;;;;;;4991793;28;20069;-89
2022/06/15 04:09:21;;;;;;;12.52;9.32;;;11.30;99.90;;;;;;4986463;28;20129;-88
2022/06/15 04:14:34;;;;;;;12.55;9.13;;;11.40;99.90;;;;;;4988371;28;20090;-89
2022/06/15 04:16:59;;;;;;;13.27;9.35;;;11.50;99.90;;;;;;4975376;28;20360;-89
2022/06/15 04:19:30;;;;;;;12.48;9.32;;;11.60;99.90;;;;;;4973482;28;20436;-90
2022/06/15 04:21:56;;;;;;;12.32;9.35;;;11.70;99.90;;;;;;4989792;28;20054;-89
2022/06/15 04:24:26;;;;;;;11.90;8.80;;;11.80;99.90;;;;;;4987567;28;20043;-89
2022/06/15 04:26:53;;;;;;;13.05;8.68;;;11.90;99.90;;;;;;4975630;28;20069;-88
2022/06/15 04:29:19;;;;;;;14.88;8.95;;;12.00;99.90;;;;;;4990497;28;20161;-89
2022/06/15 04:31:45;;;;;;;14.27;9.43;;;12.10;99.90;;;;;;4973824;28;20050;-87
2022/06/15 04:34:11;;;;;;;12.60;8.95;;;12.20;99.90;;;;;;4989849;28;20043;-89
2022/06/15 04:36:39;;;;;;;11.25;8.18;;;12.30;99.90;;;;;;4989648;28;20125;-88
2022/06/15 04:39:08;;;;;;;12.70;9.02;;;12.40;99.90;;;;;;4966494;28;20054;-88
2022/06/15 04:41:36;;;;;;;12.98;8.50;;;12.50;99.90;;;;;;4988290;28;20073;-89
2022/06/15 04:44:02;;;;;;;13.75;8.60;;;12.50;99.90;;;;;;4970141;28;20049;-88
2022/06/15 04:46:28;;;;;;;13.85;9.30;;;12.60;99.90;;;;;;4982012;28;20038;-88
2022/06/15 04:48:54;;;;;;;14.05;9.25;;;12.70;99.90;;;;;;4978888;28;20415;-87
2022/06/15 04:51:23;;;;;;;12.20;8.73;;;12.70;99.90;;;;;;4990333;28;20384;-88
2022/06/15 04:53:50;;;;;;;12.50;8.48;;;12.80;99.90;;;;;;4973268;28;20070;-88
2022/06/15 04:56:16;;;;;;;12.60;9.43;;;12.90;99.90;;;;;;4972827;28;20051;-90
2022/06/15 04:58:43;;;;;;;12.85;9.18;;;12.90;99.90;;;;;;4987558;28;20039;-88
2022/06/15 05:01:12;;;;;;;15.20;9.68;;;13.00;99.90;;;;;;4985248;28;20039;-89
2022/06/15 05:03:38;;;;;;;14.20;9.48;;;13.10;99.90;;;;;;4984940;28;20046;-89
2022/06/15 05:06:32;;;;;;;12.27;8.68;;;13.20;99.90;;;;;;4989626;28;20050;-90
2022/06/15 05:08:57;;;;;;;13.35;9.20;;;13.30;99.90;;;;;;4965934;28;20058;-89
2022/06/15 05:11:28;;;;;;;14.68;9.85;;;13.50;99.90;;;;;;4954515;28;20042;-90
2022/06/15 05:13:54;;;;;;;12.27;9.30;;;13.60;99.90;;;;;;4955970;28;20053;-90
2022/06/15 05:16:20;;;;;;;14.23;9.85;;;13.70;99.90;;;;;;4980010;28;20399;-88
2022/06/15 05:18:46;;;;;;;14.05;9.95;;;13.80;99.90;;;;;;4989746;28;20048;-89
2022/06/15 05:21:12;;;;;;;14.98;9.57;;;14.00;99.90;;;;;;4974328;28;20084;-88
2022/06/15 05:23:38;;;;;;;13.68;9.02;;;14.10;99.90;;;;;;4988083;28;20062;-88
2022/06/15 05:26:04;;;;;;;14.10;8.43;;;14.20;99.90;;;;;;4991746;28;20071;-88
2022/06/15 05:28:30;;;;;;;14.80;8.93;;;14.40;99.90;;;;;;4974110;28;20085;-89
2022/06/15 05:31:22;;;;;;;13.23;9.13;;;14.50;99.90;;;;;;4990889;28;20068;-89
2022/06/15 05:33:53;;;;;;;11.88;8.57;;;14.70;99.90;;;;;;4989046;28;20117;-93
2022/06/15 05:36:22;;;;;;;11.98;8.15;;;14.70;99.90;;;;;;4988976;28;20070;-87
2022/06/15 05:38:47;;;;;;;13.35;7.88;;;14.90;99.90;;;;;;4986465;28;20042;-89
2022/06/15 05:41:13;;;;;;;13.40;7.93;;;14.90;99.90;;;;;;4990211;28;20490;-87
2022/06/15 05:46:18;;;;;;;12.07;7.32;;;15.20;99.90;;;;;;4990648;28;20446;-90
2022/06/15 05:48:43;;;;;;;10.38;6.82;;;15.40;99.90;;;;;;4989693;28;20042;-89
2022/06/15 05:51:09;;;;;;;11.88;7.22;;;15.50;99.90;;;;;;4989331;28;20049;-91
2022/06/15 05:53:35;;;;;;;11.07;6.55;;;15.50;99.90;;;;;;4995230;28;20054;-88
2022/06/15 05:56:00;;;;;;;12.75;6.60;;;15.70;99.90;;;;;;4982597;28;20051;-91
2022/06/15 05:58:26;;;;;;;11.25;6.40;;;15.70;99.90;;;;;;4999359;28;20042;-89
2022/06/15 06:00:51;;;;;;;11.30;6.18;;;15.80;99.90;;;;;;4995257;28;20066;-91
2022/06/15 06:03:17;;;;;;;9.88;5.93;;;15.90;99.90;;;;;;4983545;28;20046;-87
2022/06/15 06:05:42;;;;;;;10.32;5.82;;;16.00;99.90;;;;;;4989840;28;20503;-89
2022/06/15 06:08:08;;;;;;;9.93;5.93;;;16.10;99.90;;;;;;4994344;28;20101;-88
2022/06/15 06:10:34;;;;;;;10.60;5.95;;;16.20;99.90;;;;;;4981369;28;20038;-90
2022/06/15 06:12:59;;;;;;;11.57;5.18;;;16.30;99.90;;;;;;4998067;28;20054;-86
2022/06/15 06:15:26;;;;;;;9.60;4.95;;;16.40;99.90;;;;;;4996994;28;20046;-88
2022/06/15 06:17:51;;;;;;;10.38;5.30;;;16.50;99.90;;;;;;4982155;28;20380;-90
2022/06/15 06:20:17;;;;;;;10.63;5.65;;;16.70;99.90;;;;;;4996968;28;20046;-86
2022/06/15 06:22:43;;;;;;;10.70;5.55;;;16.80;99.90;;;;;;4997665;28;20085;-89
2022/06/15 06:25:10;;;;;;;9.27;5.25;;;16.80;99.90;;;;;;4997283;28;20048;-88
2022/06/15 06:27:36;;;;;;;9.50;5.18;;;16.90;99.90;;;;;;4991279;28;20053;-89
2022/06/15 06:30:02;;;;;;;10.35;5.28;;;17.00;99.90;;;;;;4990613;28;20034;-90
2022/06/15 06:32:27;;;;;;;9.32;5.22;;;17.10;99.90;;;;;;4980379;28;20038;-93
2022/06/15 06:34:55;;;;;;;9.77;4.93;;;17.20;99.90;;;;;;4997647;28;20042;-94
2022/06/15 06:37:22;;;;;;;10.20;5.38;;;17.30;99.90;;;;;;4998513;28;20053;-89
2022/06/15 06:39:53;;;;;;;11.02;4.90;;;17.30;99.90;;;;;;4976973;28;20097;-95
2022/06/15 06:42:21;;;;;;;10.07;4.78;;;17.40;99.90;;;;;;5001392;28;20102;-96
2022/06/15 06:44:46;;;;;;;10.20;4.97;;;17.40;99.90;;;;;;4982103;28;20049;-94
2022/06/15 06:47:12;;;;;;;10.00;4.47;;;17.60;99.90;;;;;;4982313;28;20047;-92
2022/06/15 06:49:38;;;;;;;9.85;4.80;;;17.70;99.90;;;;;;5002170;28;20035;-93
2022/06/15 06:52:07;;;;;;;9.05;4.18;;;17.70;99.90;;;;;;4978906;28;20050;-92
2022/06/15 06:54:33;;;;;;;8.70;3.67;;;17.80;99.90;;;;;;4998621;28;20078;-93
2022/06/15 06:57:05;;;;;;;7.97;3.85;;;17.90;99.90;;;;;;4983578;28;20050;-96
2022/06/15 06:59:30;;;;;;;8.25;3.88;;;17.90;99.90;;;;;;4975243;28;20053;-91
2022/06/15 07:01:56;;;;;;;9.95;4.00;;;18.00;99.90;;;;;;4985011;28;20042;-95
2022/06/15 07:04:22;;;;;;;9.23;4.03;;;18.10;99.90;;;;;;4973940;28;20046;-91
2022/06/15 07:06:48;;;;;;;8.85;3.83;;;18.20;99.90;;;;;;5003612;28;20065;-91
2022/06/15 07:09:14;;;;;;;8.57;3.78;;;18.20;99.90;;;;;;4987433;28;20129;-94
2022/06/15 07:11:46;;;;;;;8.27;3.95;;;18.40;99.90;;;;;;5001525;28;20483;-95
2022/06/15 07:14:12;;;;;;;8.80;3.55;;;18.40;99.90;;;;;;5029234;28;20042;-90
2022/06/15 07:16:39;;;;;;;8.48;3.45;;;18.50;99.90;;;;;;4990361;28;20488;-91
2022/06/15 07:19:04;;;;;;;8.88;3.38;;;18.60;99.90;;;;;;4995772;28;20050;-92
2022/06/15 07:21:30;;;;;;;7.82;3.70;;;18.60;99.90;;;;;;4997869;28;20042;-94
2022/06/15 07:23:57;;;;;;;9.15;3.20;;;18.70;99.90;;;;;;5003467;28;20053;-93
2022/06/15 07:26:29;;;;;;;8.65;3.20;;;18.70;99.90;;;;;;4988297;28;20038;-90
2022/06/15 07:28:55;;;;;;;8.07;3.90;;;18.80;99.90;;;;;;4991184;28;20046;-90
2022/06/15 07:31:22;;;;;;;8.27;3.13;;;18.80;99.90;;;;;;4970720;28;20046;-91
2022/06/15 07:33:48;;;;;;;8.77;3.03;;;19.00;99.90;;;;;;4985919;28;20043;-89
2022/06/15 07:36:14;;;;;;;8.57;3.13;;;19.10;99.90;;;;;;4985227;28;20117;-87
2022/06/15 07:38:39;;;;;;;8.93;3.10;;;19.10;99.90;;;;;;4984659;28;20050;-94
2022/06/15 07:41:05;;;;;;;9.02;2.90;;;19.10;99.90;;;;;;4984840;28;20038;-90
2022/06/15 07:43:31;;;;;;;6.72;2.58;;;19.10;99.90;;;;;;4971315;28;20042;-88
2022/06/15 07:45:57;;;;;;;7.40;2.83;;;19.20;99.90;;;;;;4985839;28;20053;-88
2022/06/15 07:51:08;;;;;;;8.52;2.55;;;19.30;99.90;;;;;;4995733;28;20125;-89
2022/06/15 07:53:34;;;;;;;6.85;2.55;;;19.20;99.90;;;;;;4980370;28;20050;-89
2022/06/15 07:55:59;;;;;;;7.40;2.30;;;19.30;99.90;;;;;;4997601;28;20054;-88
2022/06/15 07:58:25;;;;;;;5.28;2.80;;;19.30;99.90;;;;;;4978389;28;20534;-93
2022/06/15 08:00:51;;;;;;;9.82;3.03;;;19.40;99.90;;;;;;4975840;28;20078;-89
2022/06/15 08:03:18;;;;;;;6.38;2.63;;;19.40;99.90;;;;;;4980602;28;20065;-92
2022/06/15 08:05:48;;;;;;;8.65;2.60;;;19.50;99.90;;;;;;4979246;28;20086;-90
2022/06/15 08:08:17;;;;;;;6.82;2.60;;;19.60;99.90;;;;;;4997685;28;20137;-90
2022/06/15 08:10:43;;;;;;;6.68;2.33;;;19.70;99.90;;;;;;4996705;28;20082;-91
2022/06/15 08:13:09;;;;;;;6.95;2.30;;;19.70;99.90;;;;;;4991737;28;20042;-90
2022/06/15 08:15:35;;;;;;;5.93;2.25;;;19.90;99.90;;;;;;4987251;28;20061;-87
2022/06/15 08:18:10;;;;;;;6.90;2.47;;;20.00;99.90;;;;;;4986765;28;20081;-86
2022/06/15 08:20:41;;;;;;;7.15;2.25;;;20.10;99.90;;;;;;4987485;28;20144;-88
2022/06/15 08:23:12;;;;;;;7.00;2.50;;;20.10;99.90;;;;;;4988774;28;20445;-88
2022/06/15 08:25:44;;;;;;;5.43;1.90;;;20.10;99.90;;;;;;4987493;28;20043;-87
2022/06/15 08:28:11;;;;;;;6.32;2.10;;;20.00;99.90;;;;;;4989362;28;20109;-87
2022/06/15 08:30:37;;;;;;;6.15;2.10;;;20.10;99.90;;;;;;4987481;28;20058;-86
2022/06/15 08:33:04;;;;;;;7.55;2.00;;;20.20;99.90;;;;;;4987033;28;20046;-88
2022/06/15 08:35:30;;;;;;;5.07;1.80;;;20.20;99.90;;;;;;4986961;28;20061;-88
2022/06/15 08:37:56;;;;;;;6.65;2.05;;;20.30;99.90;;;;;;4988016;28;20053;-88
2022/06/15 08:40:22;;;;;;;4.22;1.88;;;20.30;99.90;;;;;;4991068;28;20030;-86
2022/06/15 08:43:03;;;;;;;5.88;2.13;;;20.30;99.90;;;;;;4991931;28;20146;-86
2022/06/15 08:45:38;;;;;;;6.35;2.20;;;20.40;99.90;;;;;;4991133;28;20435;-87
2022/06/15 08:48:22;;;;;;;7.45;2.10;;;20.40;99.90;;;;;;4990864;28;20185;-87
2022/06/15 08:50:56;;;;;;;5.93;1.90;;;20.40;99.90;;;;;;4992222;28;20188;-86
2022/06/15 08:53:40;;;;;;;5.03;1.95;;;20.40;99.90;;;;;;4978846;28;20046;-88
2022/06/15 08:56:18;;;;;;;8.20;2.33;;;20.50;99.90;;;;;;4999291;28;20399;-85
2022/06/15 08:59:27;;;;;;;8.98;2.65;;;20.60;99.90;;;;;;4998502;28;20053;-86
2022/06/15 09:02:04;;;;;;;6.40;1.85;;;20.50;99.90;;;;;;4999204;28;20042;-88
2022/06/15 09:05:02;;;;;;;6.10;2.00;;;20.60;99.90;;;;;;4979934;28;20053;-87
2022/06/15 09:07:49;;;;;;;6.22;2.15;;;20.70;99.90;;;;;;4995805;28;20467;-87
2022/06/15 09:10:52;;;;;;;5.78;1.88;;;20.70;99.90;;;;;;4999029;28;20050;-86
2022/06/15 09:13:42;;;;;;;5.68;2.20;;;20.90;99.90;;;;;;4998103;28;20452;-88
2022/06/15 09:16:29;;;;;;;7.93;2.50;;;20.90;99.90;;;;;;4980176;28;20046;-88
2022/06/15 09:19:15;;;;;;;7.28;2.17;;;20.90;99.90;;;;;;4998053;28;20053;-86
2022/06/15 09:21:51;;;;;;;5.55;1.90;;;21.00;99.90;;;;;;4997251;28;20380;-90
2022/06/15 09:24:27;;;;;;;6.03;2.13;;;21.10;99.90;;;;;;4998701;28;20039;-87
2022/06/15 09:26:56;;;;;;;7.22;2.70;;;21.20;99.90;;;;;;4996094;28;20046;-86
2022/06/15 09:29:34;;;;;;;7.22;2.20;;;21.20;99.90;;;;;;4989958;28;20046;-85
2022/06/15 09:32:14;;;;;;;7.03;2.17;;;21.30;99.90;;;;;;4973081;28;20054;-85
2022/06/15 09:34:43;;;;;;;6.90;2.28;;;21.30;99.90;;;;;;4989515;28;20085;-88
2022/06/15 09:37:14;;;;;;;5.35;2.05;;;21.20;99.90;;;;;;4991649;28;20142;-88
2022/06/15 09:39:40;;;;;;;6.68;2.38;;;21.00;99.90;;;;;;4990724;28;20419;-86
2022/06/15 09:42:26;;;;;;;5.57;2.10;;;20.90;99.90;;;;;;4988816;28;20042;-87
2022/06/15 09:45:03;;;;;;;4.82;2.20;;;20.80;99.90;;;;;;4973642;28;20399;-87
2022/06/15 09:47:40;;;;;;;6.22;2.55;;;20.80;99.90;;;;;;4989502;28;20047;-86
2022/06/15 09:50:45;;;;;;;6.03;2.33;;;20.90;99.90;;;;;;4988654;28;20526;-88
2022/06/15 09:53:21;;;;;;;4.93;2.20;;;20.90;99.90;;;;;;4990369;28;20035;-86
2022/06/15 09:55:53;;;;;;;6.95;2.45;;;21.00;99.90;;;;;;4995774;28;20051;-84
2022/06/15 09:58:22;;;;;;;7.82;2.40;;;21.00;99.90;;;;;;4989587;28;20034;-87
2022/06/15 10:00:49;;;;;;;6.38;2.40;;;21.00;99.90;;;;;;4988241;28;20125;-86
2022/06/15 10:03:32;;;;;;;6.78;2.70;;;20.90;99.90;;;;;;4989548;28;20427;-87
2022/06/15 10:06:19;;;;;;;7.03;2.65;;;20.90;99.90;;;;;;4990555;28;20043;-86
2022/06/15 10:08:45;;;;;;;7.20;2.58;;;20.70;99.90;;;;;;4987958;28;20042;-89
2022/06/15 10:11:39;;;;;;;6.70;2.30;;;20.60;99.90;;;;;;4985629;28;20395;-88
2022/06/15 10:14:18;;;;;;;7.22;2.50;;;20.70;99.90;;;;;;4985749;28;20491;-86
2022/06/15 10:16:53;;;;;;;6.95;2.50;;;20.90;99.90;;;;;;4987042;28;20046;-88
2022/06/15 10:19:20;;;;;;;6.93;2.85;;;21.00;99.90;;;;;;4989854;28;20117;-89
2022/06/15 10:21:53;;;;;;;6.53;2.40;;;21.00;99.90;;;;;;4984268;28;20038;-88
2022/06/15 10:24:39;;;;;;;6.30;2.40;;;21.10;99.90;;;;;;4975711;28;20149;-87
2022/06/15 10:27:23;;;;;;;6.05;2.50;;;21.10;99.90;;;;;;4981485;28;20089;-85
2022/06/15 10:30:17;;;;;;;7.65;2.45;;;21.00;99.90;;;;;;4988988;28;20052;-88
2022/06/15 10:33:12;;;;;;;8.25;2.50;;;20.80;99.90;;;;;;4985476;28;20424;-87
2022/06/15 10:35:38;;;;;;;7.88;2.63;;;20.60;99.90;;;;;;4983830;28;20046;-90
2022/06/15 10:38:10;;;;;;;6.20;2.42;;;20.60;99.90;;;;;;4984288;28;21460;-89
2022/06/15 10:40:37;;;;;;;8.57;2.72;;;20.70;99.90;;;;;;4986617;28;20046;-88
2022/06/15 10:43:28;;;;;;;5.80;2.20;;;20.80;99.90;;;;;;4985319;28;20074;-86
2022/06/15 10:45:53;;;;;;;7.32;2.65;;;20.90;99.90;;;;;;4975287;28;20388;-90
2022/06/15 10:48:25;;;;;;;6.88;2.50;;;21.00;99.90;;;;;;4990503;28;20034;-92
2022/06/15 10:51:02;;;;;;;9.00;2.67;;;21.10;99.90;;;;;;4970268;28;20068;-91
2022/06/15 10:53:49;;;;;;;6.53;2.58;;;21.20;99.90;;;;;;4969467;28;20038;-88
2022/06/15 11:02:19;;;;;;;5.65;2.38;;;21.40;99.90;;;;;;4985432;28;20061;-84
2022/06/15 11:04:47;;;;;;;6.85;2.53;;;21.40;99.90;;;;;;4969631;28;20038;-89
2022/06/15 11:07:28;;;;;;;7.60;2.63;;;21.50;99.90;;;;;;4984879;28;20125;-87
2022/06/15 11:09:54;;;;;;;7.10;2.80;;;21.60;99.90;;;;;;4969908;28;20145;-88
2022/06/15 11:12:25;;;;;;;5.38;2.20;;;21.50;99.90;;;;;;4969057;28;20396;-86
2022/06/15 11:15:02;;;;;;;;;;;21.40;99.90;;;;;;4970798;28;20068;-89
2022/06/15 11:20:47;;;;;;;8.35;2.70;;;21.40;99.90;;;;;;4988436;28;20125;-88
2022/06/15 11:23:19;;;;;;;8.18;2.60;;;21.40;99.90;;;;;;4987583;28;20125;-87
2022/06/15 11:26:52;;;;;;;5.70;2.60;;;21.30;99.90;;;;;;4986778;28;20061;-86
2022/06/15 11:28:56;;;;;;;6.70;2.47;;;21.20;99.90;;;;;;4981712;28;20050;-87
2022/06/15 11:31:25;;;;;;;5.65;2.58;;;21.10;99.90;;;;;;4985840;28;20042;-87
2022/06/15 11:33:58;;;;;;;5.60;2.33;;;21.10;99.90;;;;;;4987875;28;20719;-87
2022/06/15 11:36:30;;;;;;;7.13;2.88;;;21.30;99.90;;;;;;4970852;28;20042;-88
2022/06/15 11:39:22;;;;;;;7.82;2.58;;;21.40;99.90;;;;;;4989080;28;20390;-89
2022/06/15 11:41:53;;;;;;;6.40;3.03;;;21.50;99.90;;;;;;4979030;28;20042;-88
2022/06/15 11:44:24;;;;;;;6.85;2.55;;;21.50;99.90;;;;;;4984933;28;20129;-87
2022/06/15 11:47:12;;;;;;;7.72;2.60;;;21.60;99.90;;;;;;4971729;28;20050;-88
2022/06/15 11:49:44;;;;;;;7.32;2.70;;;21.50;99.90;;;;;;4981572;28;20049;-86
2022/06/15 11:52:32;;;;;;;7.95;2.60;;;21.60;99.90;;;;;;4986167;28;20502;-86
2022/06/15 11:55:22;;;;;;;6.10;2.30;;;21.70;99.90;;;;;;4983892;28;20615;-87
2022/06/15 11:58:07;;;;;;;5.80;2.03;;;21.70;99.90;;;;;;4970249;28;20560;-89
2022/06/15 12:00:56;;;;;;;7.93;2.78;;;21.80;99.90;;;;;;4982562;28;20082;-90
2022/06/15 12:03:46;;;;;;;5.90;2.40;;;21.90;99.90;;;;;;4968666;28;20046;-90
2022/06/15 12:06:34;;;;;;;6.68;2.45;;;21.90;99.90;;;;;;4952585;28;20082;-89
2022/06/15 12:09:15;;;;;;;6.20;2.15;;;22.00;99.90;;;;;;4956617;28;20034;-90
2022/06/15 12:12:38;;;;;;;6.13;2.30;;;22.00;99.90;;;;;;4984317;28;20156;-88
2022/06/15 12:15:22;;;;;;;7.05;2.55;;;22.00;99.90;;;;;;4980053;28;20058;-87
2022/06/15 12:18:12;;;;;;;5.68;2.55;;;21.80;99.90;;;;;;4987458;28;20052;-88
2022/06/15 12:21:04;;;;;;;7.40;2.75;;;21.70;99.90;;;;;;4989938;28;20042;-88
2022/06/15 12:23:41;;;;;;;7.32;2.38;;;21.60;99.90;;;;;;4974032;28;20133;-85
2022/06/15 12:26:36;;;;;;;6.07;2.25;;;21.60;99.90;;;;;;4990647;28;20084;-89
2022/06/15 12:29:11;;;;;;;5.88;2.45;;;21.70;99.90;;;;;;4919180;29;20051;-87
2022/06/15 12:31:55;;;;;;;6.68;2.20;;;21.80;99.90;;;;;;4948754;28;20129;-88
2022/06/15 12:34:43;;;;;;;6.18;2.40;;;21.80;99.90;;;;;;4970908;28;20358;-86
2022/06/15 12:37:42;;;;;;;6.50;2.30;;;21.80;99.90;;;;;;4966365;28;20444;-85
2022/06/15 12:40:24;;;;;;;7.10;2.60;;;21.80;99.90;;;;;;4941032;29;20059;-88
2022/06/15 12:42:55;;;;;;;5.30;2.38;;;21.70;99.90;;;;;;4951442;28;20105;-85
2022/06/15 12:46:08;;;;;;;7.00;2.40;;;21.70;99.90;;;;;;4954777;28;20101;-88
2022/06/15 12:49:01;;;;;;;6.10;2.40;;;21.80;99.90;;;;;;4936063;28;20055;-86
2022/06/15 12:51:45;;;;;;;6.45;2.60;;;21.90;99.90;;;;;;4962156;28;20106;-89
2022/06/15 12:54:45;;;;;;;5.63;2.20;;;21.90;99.90;;;;;;4957021;28;20043;-86
2022/06/15 12:57:27;;;;;;;6.57;2.35;;;21.90;99.90;;;;;;4893908;29;20048;-88
2022/06/15 13:00:18;;;;;;;5.22;2.30;;;22.00;99.90;;;;;;4883551;29;20107;-87
2022/06/15 13:03:32;;;;;;;4.38;1.70;;;22.00;99.90;;;;;;4878929;29;20052;-88
2022/06/15 13:06:29;;;;;;;5.03;2.00;;;22.00;99.90;;;;;;4910660;29;20059;-90
2022/06/15 13:09:15;;;;;;;6.13;2.40;;;22.00;99.90;;;;;;4913528;29;20062;-88
2022/06/15 13:11:52;;;;;;;6.57;2.20;;;21.90;99.90;;;;;;4901945;29;20135;-89
2022/06/15 13:14:22;;;;;;;8.35;2.22;;;21.90;99.90;;;;;;4898383;29;20087;-89
2022/06/15 13:17:19;;;;;;;5.78;2.40;;;21.80;99.90;;;;;;4915234;29;20139;-88
2022/06/15 13:19:46;;;;;;;5.90;2.10;;;21.80;99.90;;;;;;4930227;29;20134;-84
2022/06/15 13:22:32;;;;;;;5.82;2.25;;;21.90;99.90;;;;;;4914830;29;20048;-86
2022/06/15 13:25:03;;;;;;;5.05;2.10;;;22.10;99.90;;;;;;4931452;29;20046;-86
2022/06/15 13:27:31;;;;;;;6.22;2.35;;;22.20;99.90;;;;;;4929539;29;20545;-85
2022/06/15 13:30:27;;;;;;;4.07;2.00;;;22.10;99.90;;;;;;4914521;29;20051;-90
2022/06/15 13:32:57;;;;;;;6.78;2.50;;;22.10;99.90;;;;;;4949024;28;20065;-88